sensor_id;sensor_type;location;lat;lon;timestamp;P1;durP1;ratioP1;P2;durP2;ratioP2
46613;SDS011;32338;50.430;6.806;2023-08-08T00:02:25;3.00;;;1.20;;
46613;SDS011;32338;50.430;6.806;2023-08-08T00:04:52;1.30;;;1.20;;
46613;SDS011;32338;50.430;6.806;2023-08-08T00:07:19;3.28;;;1.40;;
46613;SDS011;32338;50.430;6.806;2023-08-08T00:09:45;2.97;;;1.38;;
46613;SDS011;32338;50.430;6.806;2023-08-08T00:12:13;2.22;;;1.40;;
46613;SDS011;32338;50.430;6.806;2023-08-08T00:14:40;5.00;;;1.63;;
46613;SDS011;32338;50.430;6.806;2023-08-08T00:17:06;1.50;;;1.40;;
46613;SDS011;32338;50.430;6.806;2023-08-08T00:19:33;1.48;;;1.23;;
46613;SDS011;32338;50.430;6.806;2023-08-08T00:22:00;7.90;;;1.40;;
46613;SDS011;32338;50.430;6.806;2023-08-08T00:24:26;1.60;;;1.23;;
46613;SDS011;32338;50.430;6.806;2023-08-08T00:26:53;1.75;;;1.30;;
46613;SDS011;32338;50.430;6.806;2023-08-08T00:29:21;2.83;;;1.40;;
46613;SDS011;32338;50.430;6.806;2023-08-08T00:31:47;2.58;;;1.45;;
46613;SDS011;32338;50.430;6.806;2023-08-08T00:34:14;2.30;;;1.27;;
46613;SDS011;32338;50.430;6.806;2023-08-08T00:36:40;1.85;;;1.50;;
46613;SDS011;32338;50.430;6.806;2023-08-08T00:39:07;5.60;;;1.27;;
46613;SDS011;32338;50.430;6.806;2023-08-08T00:41:34;3.13;;;1.35;;
46613;SDS011;32338;50.430;6.806;2023-08-08T00:44:00;4.85;;;1.63;;
46613;SDS011;32338;50.430;6.806;2023-08-08T00:46:28;4.10;;;1.80;;
46613;SDS011;32338;50.430;6.806;2023-08-08T00:48:55;3.45;;;1.35;;
46613;SDS011;32338;50.430;6.806;2023-08-08T00:51:21;3.50;;;1.40;;
46613;SDS011;32338;50.430;6.806;2023-08-08T00:53:49;5.57;;;1.52;;
46613;SDS011;32338;50.430;6.806;2023-08-08T00:56:16;3.58;;;1.33;;
46613;SDS011;32338;50.430;6.806;2023-08-08T00:58:43;2.53;;;1.35;;
46613;SDS011;32338;50.430;6.806;2023-08-08T01:01:11;2.03;;;1.60;;
46613;SDS011;32338;50.430;6.806;2023-08-08T01:03:39;1.80;;;1.45;;
46613;SDS011;32338;50.430;6.806;2023-08-08T01:06:08;3.53;;;1.38;;
46613;SDS011;32338;50.430;6.806;2023-08-08T01:08:40;1.35;;;1.23;;
46613;SDS011;32338;50.430;6.806;2023-08-08T01:11:11;1.92;;;1.50;;
46613;SDS011;32338;50.430;6.806;2023-08-08T01:13:39;3.42;;;1.40;;
46613;SDS011;32338;50.430;6.806;2023-08-08T01:16:07;1.55;;;1.40;;
46613;SDS011;32338;50.430;6.806;2023-08-08T01:18:33;4.43;;;1.80;;
46613;SDS011;32338;50.430;6.806;2023-08-08T01:21:03;1.80;;;1.40;;
46613;SDS011;32338;50.430;6.806;2023-08-08T01:23:33;3.95;;;1.58;;
46613;SDS011;32338;50.430;6.806;2023-08-08T01:26:13;1.40;;;1.30;;
46613;SDS011;32338;50.430;6.806;2023-08-08T01:28:41;4.20;;;1.55;;
46613;SDS011;32338;50.430;6.806;2023-08-08T01:31:08;1.70;;;1.58;;
46613;SDS011;32338;50.430;6.806;2023-08-08T01:33:35;1.95;;;1.50;;
46613;SDS011;32338;50.430;6.806;2023-08-08T01:36:03;3.38;;;1.70;;
46613;SDS011;32338;50.430;6.806;2023-08-08T01:38:39;2.20;;;1.40;;
46613;SDS011;32338;50.430;6.806;2023-08-08T01:41:09;3.67;;;1.67;;
46613;SDS011;32338;50.430;6.806;2023-08-08T01:43:37;4.47;;;1.80;;
46613;SDS011;32338;50.430;6.806;2023-08-08T01:46:05;2.58;;;1.77;;
46613;SDS011;32338;50.430;6.806;2023-08-08T01:48:33;2.88;;;1.73;;
46613;SDS011;32338;50.430;6.806;2023-08-08T01:50:59;1.85;;;1.65;;
46613;SDS011;32338;50.430;6.806;2023-08-08T01:53:26;1.98;;;1.75;;
46613;SDS011;32338;50.430;6.806;2023-08-08T01:55:53;4.55;;;1.80;;
46613;SDS011;32338;50.430;6.806;2023-08-08T01:58:19;2.80;;;1.77;;
46613;SDS011;32338;50.430;6.806;2023-08-08T02:00:47;3.08;;;1.58;;
46613;SDS011;32338;50.430;6.806;2023-08-08T02:03:14;3.47;;;1.83;;
46613;SDS011;32338;50.430;6.806;2023-08-08T02:05:40;2.38;;;1.75;;
46613;SDS011;32338;50.430;6.806;2023-08-08T02:08:07;3.35;;;1.65;;
46613;SDS011;32338;50.430;6.806;2023-08-08T02:10:34;4.25;;;1.90;;
46613;SDS011;32338;50.430;6.806;2023-08-08T02:13:01;3.22;;;1.85;;
46613;SDS011;32338;50.430;6.806;2023-08-08T02:15:27;2.60;;;1.80;;
46613;SDS011;32338;50.430;6.806;2023-08-08T02:17:55;3.50;;;2.00;;
46613;SDS011;32338;50.430;6.806;2023-08-08T02:20:22;2.67;;;2.15;;
46613;SDS011;32338;50.430;6.806;2023-08-08T02:22:49;4.57;;;2.40;;
46613;SDS011;32338;50.430;6.806;2023-08-08T02:25:15;3.65;;;1.60;;
46613;SDS011;32338;50.430;6.806;2023-08-08T02:27:42;2.90;;;2.00;;
46613;SDS011;32338;50.430;6.806;2023-08-08T02:30:09;3.15;;;2.28;;
46613;SDS011;32338;50.430;6.806;2023-08-08T02:32:36;4.70;;;2.13;;
46613;SDS011;32338;50.430;6.806;2023-08-08T02:35:04;5.75;;;2.22;;
46613;SDS011;32338;50.430;6.806;2023-08-08T02:37:32;2.75;;;2.38;;
46613;SDS011;32338;50.430;6.806;2023-08-08T02:39:58;4.72;;;2.13;;
46613;SDS011;32338;50.430;6.806;2023-08-08T02:42:25;5.15;;;2.17;;
46613;SDS011;32338;50.430;6.806;2023-08-08T02:44:51;3.22;;;2.17;;
46613;SDS011;32338;50.430;6.806;2023-08-08T02:47:18;3.30;;;2.10;;
46613;SDS011;32338;50.430;6.806;2023-08-08T02:49:45;2.20;;;1.92;;
46613;SDS011;32338;50.430;6.806;2023-08-08T02:52:13;2.92;;;2.10;;
46613;SDS011;32338;50.430;6.806;2023-08-08T02:54:40;3.10;;;2.15;;
46613;SDS011;32338;50.430;6.806;2023-08-08T02:57:06;2.22;;;2.03;;
46613;SDS011;32338;50.430;6.806;2023-08-08T02:59:35;4.97;;;2.65;;
46613;SDS011;32338;50.430;6.806;2023-08-08T03:02:02;3.17;;;2.40;;
46613;SDS011;32338;50.430;6.806;2023-08-08T03:04:29;3.55;;;2.03;;
46613;SDS011;32338;50.430;6.806;2023-08-08T03:06:56;5.88;;;2.22;;
46613;SDS011;32338;50.430;6.806;2023-08-08T03:09:24;4.95;;;2.25;;
46613;SDS011;32338;50.430;6.806;2023-08-08T03:11:50;3.30;;;1.98;;
46613;SDS011;32338;50.430;6.806;2023-08-08T03:14:17;4.40;;;1.88;;
46613;SDS011;32338;50.430;6.806;2023-08-08T03:16:43;4.35;;;2.17;;
46613;SDS011;32338;50.430;6.806;2023-08-08T03:19:10;4.75;;;2.13;;
46613;SDS011;32338;50.430;6.806;2023-08-08T03:21:36;4.78;;;2.22;;
46613;SDS011;32338;50.430;6.806;2023-08-08T03:24:03;5.20;;;1.95;;
46613;SDS011;32338;50.430;6.806;2023-08-08T03:26:32;3.92;;;2.13;;
46613;SDS011;32338;50.430;6.806;2023-08-08T03:28:58;3.42;;;2.00;;
46613;SDS011;32338;50.430;6.806;2023-08-08T03:31:25;3.60;;;1.88;;
46613;SDS011;32338;50.430;6.806;2023-08-08T03:33:52;2.83;;;2.08;;
46613;SDS011;32338;50.430;6.806;2023-08-08T03:36:19;3.80;;;2.47;;
46613;SDS011;32338;50.430;6.806;2023-08-08T03:38:45;3.97;;;1.92;;
46613;SDS011;32338;50.430;6.806;2023-08-08T03:41:12;4.15;;;1.63;;
46613;SDS011;32338;50.430;6.806;2023-08-08T03:43:40;6.15;;;2.22;;
46613;SDS011;32338;50.430;6.806;2023-08-08T03:46:07;7.07;;;1.83;;
46613;SDS011;32338;50.430;6.806;2023-08-08T03:48:34;3.58;;;2.00;;
46613;SDS011;32338;50.430;6.806;2023-08-08T03:51:00;5.63;;;2.13;;
46613;SDS011;32338;50.430;6.806;2023-08-08T03:53:27;4.18;;;2.10;;
46613;SDS011;32338;50.430;6.806;2023-08-08T03:55:54;7.05;;;2.33;;
46613;SDS011;32338;50.430;6.806;2023-08-08T03:58:20;2.88;;;2.08;;
46613;SDS011;32338;50.430;6.806;2023-08-08T04:00:48;5.50;;;2.20;;
46613;SDS011;32338;50.430;6.806;2023-08-08T04:03:15;7.57;;;2.25;;
46613;SDS011;32338;50.430;6.806;2023-08-08T04:05:43;4.22;;;2.17;;
46613;SDS011;32338;50.430;6.806;2023-08-08T04:08:11;2.53;;;1.90;;
46613;SDS011;32338;50.430;6.806;2023-08-08T04:10:38;6.70;;;2.17;;
46613;SDS011;32338;50.430;6.806;2023-08-08T04:13:05;5.25;;;1.95;;
46613;SDS011;32338;50.430;6.806;2023-08-08T04:15:31;6.50;;;2.25;;
46613;SDS011;32338;50.430;6.806;2023-08-08T04:17:59;6.60;;;2.10;;
46613;SDS011;32338;50.430;6.806;2023-08-08T04:20:26;6.88;;;2.83;;
46613;SDS011;32338;50.430;6.806;2023-08-08T04:22:52;5.72;;;2.20;;
46613;SDS011;32338;50.430;6.806;2023-08-08T04:25:19;6.60;;;2.30;;
46613;SDS011;32338;50.430;6.806;2023-08-08T04:27:46;7.88;;;2.80;;
46613;SDS011;32338;50.430;6.806;2023-08-08T04:30:12;3.80;;;2.22;;
46613;SDS011;32338;50.430;6.806;2023-08-08T04:32:39;3.78;;;2.20;;
46613;SDS011;32338;50.430;6.806;2023-08-08T04:35:07;5.15;;;1.85;;
46613;SDS011;32338;50.430;6.806;2023-08-08T04:37:34;7.15;;;2.45;;
46613;SDS011;32338;50.430;6.806;2023-08-08T04:40:01;5.30;;;2.10;;
46613;SDS011;32338;50.430;6.806;2023-08-08T04:42:28;6.85;;;2.05;;
46613;SDS011;32338;50.430;6.806;2023-08-08T04:44:55;3.45;;;2.30;;
46613;SDS011;32338;50.430;6.806;2023-08-08T04:47:21;6.72;;;2.20;;
46613;SDS011;32338;50.430;6.806;2023-08-08T04:49:48;4.95;;;2.10;;
46613;SDS011;32338;50.430;6.806;2023-08-08T04:52:16;5.57;;;2.10;;
46613;SDS011;32338;50.430;6.806;2023-08-08T04:54:42;5.43;;;2.42;;
46613;SDS011;32338;50.430;6.806;2023-08-08T04:57:09;4.05;;;2.30;;
46613;SDS011;32338;50.430;6.806;2023-08-08T04:59:36;8.18;;;2.40;;
46613;SDS011;32338;50.430;6.806;2023-08-08T05:02:02;7.47;;;3.22;;
46613;SDS011;32338;50.430;6.806;2023-08-08T05:04:29;7.57;;;2.80;;
46613;SDS011;32338;50.430;6.806;2023-08-08T05:06:56;5.90;;;2.97;;
46613;SDS011;32338;50.430;6.806;2023-08-08T05:09:25;3.58;;;3.00;;
46613;SDS011;32338;50.430;6.806;2023-08-08T05:11:52;7.60;;;3.13;;
46613;SDS011;32338;50.430;6.806;2023-08-08T05:14:19;6.03;;;3.05;;
46613;SDS011;32338;50.430;6.806;2023-08-08T05:16:45;6.38;;;3.30;;
46613;SDS011;32338;50.430;6.806;2023-08-08T05:19:12;11.07;;;3.70;;
46613;SDS011;32338;50.430;6.806;2023-08-08T05:21:39;6.80;;;3.05;;
46613;SDS011;32338;50.430;6.806;2023-08-08T05:24:05;7.00;;;3.20;;
46613;SDS011;32338;50.430;6.806;2023-08-08T05:26:34;7.03;;;3.30;;
46613;SDS011;32338;50.430;6.806;2023-08-08T05:29:00;4.75;;;3.20;;
46613;SDS011;32338;50.430;6.806;2023-08-08T05:31:27;5.45;;;3.00;;
46613;SDS011;32338;50.430;6.806;2023-08-08T05:33:53;5.90;;;3.08;;
46613;SDS011;32338;50.430;6.806;2023-08-08T05:36:20;10.40;;;3.28;;
46613;SDS011;32338;50.430;6.806;2023-08-08T05:38:47;4.72;;;2.75;;
46613;SDS011;32338;50.430;6.806;2023-08-08T05:41:13;9.27;;;3.72;;
46613;SDS011;32338;50.430;6.806;2023-08-08T05:43:41;4.60;;;3.08;;
46613;SDS011;32338;50.430;6.806;2023-08-08T05:46:08;9.52;;;3.28;;
46613;SDS011;32338;50.430;6.806;2023-08-08T05:48:34;5.97;;;3.97;;
46613;SDS011;32338;50.430;6.806;2023-08-08T05:51:01;8.50;;;3.65;;
46613;SDS011;32338;50.430;6.806;2023-08-08T05:53:30;7.03;;;3.47;;
46613;SDS011;32338;50.430;6.806;2023-08-08T05:55:56;6.10;;;3.40;;
46613;SDS011;32338;50.430;6.806;2023-08-08T05:58:23;6.72;;;3.45;;
46613;SDS011;32338;50.430;6.806;2023-08-08T06:00:51;6.63;;;3.55;;
46613;SDS011;32338;50.430;6.806;2023-08-08T06:03:18;7.85;;;3.60;;
46613;SDS011;32338;50.430;6.806;2023-08-08T06:05:44;8.85;;;3.80;;
46613;SDS011;32338;50.430;6.806;2023-08-08T06:08:11;9.52;;;3.65;;
46613;SDS011;32338;50.430;6.806;2023-08-08T06:10:38;7.72;;;3.60;;
46613;SDS011;32338;50.430;6.806;2023-08-08T06:13:05;10.07;;;3.85;;
46613;SDS011;32338;50.430;6.806;2023-08-08T06:15:32;10.07;;;3.90;;
46613;SDS011;32338;50.430;6.806;2023-08-08T06:17:59;8.52;;;4.22;;
46613;SDS011;32338;50.430;6.806;2023-08-08T06:20:26;8.32;;;4.10;;
46613;SDS011;32338;50.430;6.806;2023-08-08T06:22:53;12.23;;;4.55;;
46613;SDS011;32338;50.430;6.806;2023-08-08T06:25:20;8.75;;;3.47;;
46613;SDS011;32338;50.430;6.806;2023-08-08T06:27:46;9.82;;;4.22;;
46613;SDS011;32338;50.430;6.806;2023-08-08T06:30:13;8.43;;;4.25;;
46613;SDS011;32338;50.430;6.806;2023-08-08T06:32:39;8.55;;;4.47;;
46613;SDS011;32338;50.430;6.806;2023-08-08T06:35:08;9.02;;;3.88;;
46613;SDS011;32338;50.430;6.806;2023-08-08T06:37:35;8.55;;;4.07;;
46613;SDS011;32338;50.430;6.806;2023-08-08T06:40:02;7.28;;;3.83;;
46613;SDS011;32338;50.430;6.806;2023-08-08T06:42:28;12.65;;;3.65;;
46613;SDS011;32338;50.430;6.806;2023-08-08T06:44:55;7.63;;;4.13;;
46613;SDS011;32338;50.430;6.806;2023-08-08T06:47:22;13.90;;;3.83;;
46613;SDS011;32338;50.430;6.806;2023-08-08T06:49:48;5.93;;;3.28;;
46613;SDS011;32338;50.430;6.806;2023-08-08T06:52:16;10.05;;;3.30;;
46613;SDS011;32338;50.430;6.806;2023-08-08T06:54:42;7.22;;;3.03;;
46613;SDS011;32338;50.430;6.806;2023-08-08T06:57:09;7.70;;;3.58;;
46613;SDS011;32338;50.430;6.806;2023-08-08T06:59:36;13.32;;;3.20;;
46613;SDS011;32338;50.430;6.806;2023-08-08T07:02:02;7.72;;;3.83;;
46613;SDS011;32338;50.430;6.806;2023-08-08T07:04:30;9.15;;;3.72;;
46613;SDS011;32338;50.430;6.806;2023-08-08T07:06:57;9.70;;;3.50;;
46613;SDS011;32338;50.430;6.806;2023-08-08T07:09:25;7.28;;;2.95;;
46613;SDS011;32338;50.430;6.806;2023-08-08T07:11:51;8.70;;;3.15;;
46613;SDS011;32338;50.430;6.806;2023-08-08T07:14:18;8.05;;;5.00;;
46613;SDS011;32338;50.430;6.806;2023-08-08T07:16:44;11.38;;;3.80;;
46613;SDS011;32338;50.430;6.806;2023-08-08T07:19:11;7.43;;;3.30;;
46613;SDS011;32338;50.430;6.806;2023-08-08T07:21:37;8.23;;;3.33;;
46613;SDS011;32338;50.430;6.806;2023-08-08T07:24:04;9.32;;;3.08;;
46613;SDS011;32338;50.430;6.806;2023-08-08T07:26:32;5.75;;;2.10;;
46613;SDS011;32338;50.430;6.806;2023-08-08T07:28:58;5.38;;;2.30;;
46613;SDS011;32338;50.430;6.806;2023-08-08T07:31:25;5.28;;;2.50;;
46613;SDS011;32338;50.430;6.806;2023-08-08T07:33:52;5.78;;;2.40;;
46613;SDS011;32338;50.430;6.806;2023-08-08T07:36:18;12.38;;;2.47;;
46613;SDS011;32338;50.430;6.806;2023-08-08T07:38:45;5.28;;;2.35;;
46613;SDS011;32338;50.430;6.806;2023-08-08T07:41:11;6.70;;;2.85;;
46613;SDS011;32338;50.430;6.806;2023-08-08T07:43:39;6.07;;;2.40;;
46613;SDS011;32338;50.430;6.806;2023-08-08T07:46:06;6.85;;;2.30;;
46613;SDS011;32338;50.430;6.806;2023-08-08T07:48:32;5.63;;;2.30;;
46613;SDS011;32338;50.430;6.806;2023-08-08T07:50:59;6.68;;;1.90;;
46613;SDS011;32338;50.430;6.806;2023-08-08T07:53:25;5.13;;;1.92;;
46613;SDS011;32338;50.430;6.806;2023-08-08T07:55:52;4.10;;;1.45;;
46613;SDS011;32338;50.430;6.806;2023-08-08T07:58:19;6.50;;;1.80;;
46613;SDS011;32338;50.430;6.806;2023-08-08T08:00:49;4.00;;;1.70;;
46613;SDS011;32338;50.430;6.806;2023-08-08T08:03:17;4.95;;;1.83;;
46613;SDS011;32338;50.430;6.806;2023-08-08T08:05:43;5.22;;;1.50;;
46613;SDS011;32338;50.430;6.806;2023-08-08T08:08:10;5.78;;;1.50;;
46613;SDS011;32338;50.430;6.806;2023-08-08T08:10:36;10.38;;;1.85;;
46613;SDS011;32338;50.430;6.806;2023-08-08T08:13:03;6.13;;;1.30;;
46613;SDS011;32338;50.430;6.806;2023-08-08T08:15:30;8.27;;;1.50;;
46613;SDS011;32338;50.430;6.806;2023-08-08T08:17:58;5.70;;;1.95;;
46613;SDS011;32338;50.430;6.806;2023-08-08T08:20:24;4.78;;;1.50;;
46613;SDS011;32338;50.430;6.806;2023-08-08T08:22:51;6.50;;;1.40;;
46613;SDS011;32338;50.430;6.806;2023-08-08T08:25:17;3.25;;;1.10;;
46613;SDS011;32338;50.430;6.806;2023-08-08T08:27:44;6.20;;;1.42;;
46613;SDS011;32338;50.430;6.806;2023-08-08T08:30:11;2.97;;;1.20;;
46613;SDS011;32338;50.430;6.806;2023-08-08T08:32:39;2.33;;;1.20;;
46613;SDS011;32338;50.430;6.806;2023-08-08T08:35:08;3.50;;;1.48;;
46613;SDS011;32338;50.430;6.806;2023-08-08T08:37:37;5.50;;;1.30;;
46613;SDS011;32338;50.430;6.806;2023-08-08T08:40:04;2.00;;;1.00;;
46613;SDS011;32338;50.430;6.806;2023-08-08T08:42:31;4.15;;;1.20;;
46613;SDS011;32338;50.430;6.806;2023-08-08T08:44:58;2.78;;;1.05;;
46613;SDS011;32338;50.430;6.806;2023-08-08T08:47:25;2.90;;;1.15;;
46613;SDS011;32338;50.430;6.806;2023-08-08T08:49:56;4.85;;;1.25;;
46613;SDS011;32338;50.430;6.806;2023-08-08T08:52:24;5.68;;;1.23;;
46613;SDS011;32338;50.430;6.806;2023-08-08T08:54:51;2.25;;;1.20;;
46613;SDS011;32338;50.430;6.806;2023-08-08T08:57:18;4.82;;;1.00;;
46613;SDS011;32338;50.430;6.806;2023-08-08T08:59:48;5.45;;;1.10;;
46613;SDS011;32338;50.430;6.806;2023-08-08T09:02:15;3.67;;;1.30;;
46613;SDS011;32338;50.430;6.806;2023-08-08T09:04:42;3.38;;;0.90;;
46613;SDS011;32338;50.430;6.806;2023-08-08T09:07:10;5.38;;;0.98;;
46613;SDS011;32338;50.430;6.806;2023-08-08T09:09:39;3.88;;;1.10;;
46613;SDS011;32338;50.430;6.806;2023-08-08T09:12:09;3.15;;;0.93;;
46613;SDS011;32338;50.430;6.806;2023-08-08T09:14:38;2.75;;;1.20;;
46613;SDS011;32338;50.430;6.806;2023-08-08T09:17:09;3.15;;;1.25;;
46613;SDS011;32338;50.430;6.806;2023-08-08T09:19:37;5.25;;;1.17;;
46613;SDS011;32338;50.430;6.806;2023-08-08T09:22:04;4.65;;;1.20;;
46613;SDS011;32338;50.430;6.806;2023-08-08T09:24:30;2.63;;;1.25;;
46613;SDS011;32338;50.430;6.806;2023-08-08T09:26:59;4.35;;;0.98;;
46613;SDS011;32338;50.430;6.806;2023-08-08T09:29:26;7.22;;;1.20;;
46613;SDS011;32338;50.430;6.806;2023-08-08T09:31:53;2.67;;;1.25;;
46613;SDS011;32338;50.430;6.806;2023-08-08T09:34:23;3.45;;;1.23;;
46613;SDS011;32338;50.430;6.806;2023-08-08T09:36:51;3.63;;;1.30;;
46613;SDS011;32338;50.430;6.806;2023-08-08T09:39:18;4.63;;;1.30;;
46613;SDS011;32338;50.430;6.806;2023-08-08T09:41:45;4.72;;;1.20;;
46613;SDS011;32338;50.430;6.806;2023-08-08T09:44:13;2.83;;;1.02;;
46613;SDS011;32338;50.430;6.806;2023-08-08T09:46:40;3.95;;;1.15;;
46613;SDS011;32338;50.430;6.806;2023-08-08T09:49:06;4.55;;;1.30;;
46613;SDS011;32338;50.430;6.806;2023-08-08T09:51:36;2.20;;;1.00;;
46613;SDS011;32338;50.430;6.806;2023-08-08T09:54:02;6.65;;;0.93;;
46613;SDS011;32338;50.430;6.806;2023-08-08T09:56:31;3.05;;;1.20;;
46613;SDS011;32338;50.430;6.806;2023-08-08T09:58:59;4.20;;;1.20;;
46613;SDS011;32338;50.430;6.806;2023-08-08T10:01:28;3.83;;;0.98;;
46613;SDS011;32338;50.430;6.806;2023-08-08T10:03:55;3.13;;;1.00;;
46613;SDS011;32338;50.430;6.806;2023-08-08T10:06:22;5.30;;;1.05;;
46613;SDS011;32338;50.430;6.806;2023-08-08T10:08:49;4.90;;;1.10;;
46613;SDS011;32338;50.430;6.806;2023-08-08T10:11:16;4.07;;;1.00;;
46613;SDS011;32338;50.430;6.806;2023-08-08T10:13:48;3.88;;;1.33;;
46613;SDS011;32338;50.430;6.806;2023-08-08T10:16:16;5.65;;;1.20;;
46613;SDS011;32338;50.430;6.806;2023-08-08T10:18:45;7.85;;;1.10;;
46613;SDS011;32338;50.430;6.806;2023-08-08T10:21:12;3.15;;;0.98;;
46613;SDS011;32338;50.430;6.806;2023-08-08T10:23:39;3.85;;;1.13;;
46613;SDS011;32338;50.430;6.806;2023-08-08T10:26:16;2.63;;;1.00;;
46613;SDS011;32338;50.430;6.806;2023-08-08T10:28:52;2.70;;;1.00;;
46613;SDS011;32338;50.430;6.806;2023-08-08T10:31:19;1.20;;;0.73;;
46613;SDS011;32338;50.430;6.806;2023-08-08T10:33:48;3.97;;;0.82;;
46613;SDS011;32338;50.430;6.806;2023-08-08T10:36:15;2.75;;;0.77;;
46613;SDS011;32338;50.430;6.806;2023-08-08T10:38:43;5.97;;;0.93;;
46613;SDS011;32338;50.430;6.806;2023-08-08T10:41:12;3.72;;;1.10;;
46613;SDS011;32338;50.430;6.806;2023-08-08T10:43:47;2.80;;;0.90;;
46613;SDS011;32338;50.430;6.806;2023-08-08T10:46:21;5.57;;;0.90;;
46613;SDS011;32338;50.430;6.806;2023-08-08T10:48:52;4.38;;;0.90;;
46613;SDS011;32338;50.430;6.806;2023-08-08T10:51:20;5.50;;;0.93;;
46613;SDS011;32338;50.430;6.806;2023-08-08T10:53:47;7.28;;;0.93;;
46613;SDS011;32338;50.430;6.806;2023-08-08T10:56:18;4.55;;;1.10;;
46613;SDS011;32338;50.430;6.806;2023-08-08T10:58:47;3.65;;;1.10;;
46613;SDS011;32338;50.430;6.806;2023-08-08T11:01:14;2.83;;;0.80;;
46613;SDS011;32338;50.430;6.806;2023-08-08T11:03:42;2.97;;;1.25;;
46613;SDS011;32338;50.430;6.806;2023-08-08T11:06:10;3.53;;;1.08;;
46613;SDS011;32338;50.430;6.806;2023-08-08T11:08:37;3.42;;;1.10;;
46613;SDS011;32338;50.430;6.806;2023-08-08T11:11:04;4.78;;;1.00;;
46613;SDS011;32338;50.430;6.806;2023-08-08T11:13:32;2.78;;;0.70;;
46613;SDS011;32338;50.430;6.806;2023-08-08T11:15:59;3.95;;;1.15;;
46613;SDS011;32338;50.430;6.806;2023-08-08T11:18:26;5.82;;;1.08;;
46613;SDS011;32338;50.430;6.806;2023-08-08T11:20:53;4.50;;;0.85;;
46613;SDS011;32338;50.430;6.806;2023-08-08T11:23:21;5.07;;;0.90;;
46613;SDS011;32338;50.430;6.806;2023-08-08T11:25:48;3.00;;;0.70;;
46613;SDS011;32338;50.430;6.806;2023-08-08T11:28:15;4.78;;;1.10;;
46613;SDS011;32338;50.430;6.806;2023-08-08T11:30:42;3.92;;;0.98;;
46613;SDS011;32338;50.430;6.806;2023-08-08T11:33:12;2.17;;;0.80;;
46613;SDS011;32338;50.430;6.806;2023-08-08T11:35:42;1.35;;;0.50;;
46613;SDS011;32338;50.430;6.806;2023-08-08T11:38:10;2.70;;;1.05;;
46613;SDS011;32338;50.430;6.806;2023-08-08T11:40:40;3.67;;;0.88;;
46613;SDS011;32338;50.430;6.806;2023-08-08T11:43:07;3.75;;;0.90;;
46613;SDS011;32338;50.430;6.806;2023-08-08T11:45:34;2.00;;;0.95;;
46613;SDS011;32338;50.430;6.806;2023-08-08T11:48:01;2.40;;;0.95;;
46613;SDS011;32338;50.430;6.806;2023-08-08T11:50:28;3.15;;;0.88;;
46613;SDS011;32338;50.430;6.806;2023-08-08T11:52:55;3.22;;;0.85;;
46613;SDS011;32338;50.430;6.806;2023-08-08T11:55:26;3.30;;;0.88;;
46613;SDS011;32338;50.430;6.806;2023-08-08T11:57:55;2.67;;;0.77;;
46613;SDS011;32338;50.430;6.806;2023-08-08T12:00:26;3.10;;;0.60;;
46613;SDS011;32338;50.430;6.806;2023-08-08T12:02:54;4.28;;;0.80;;
46613;SDS011;32338;50.430;6.806;2023-08-08T12:05:21;3.55;;;0.80;;
46613;SDS011;32338;50.430;6.806;2023-08-08T12:07:48;2.88;;;0.80;;
46613;SDS011;32338;50.430;6.806;2023-08-08T12:10:15;2.20;;;0.70;;
46613;SDS011;32338;50.430;6.806;2023-08-08T12:12:43;2.50;;;0.82;;
46613;SDS011;32338;50.430;6.806;2023-08-08T12:15:12;4.78;;;1.13;;
46613;SDS011;32338;50.430;6.806;2023-08-08T12:17:39;3.75;;;0.93;;
46613;SDS011;32338;50.430;6.806;2023-08-08T12:20:06;1.92;;;0.75;;
46613;SDS011;32338;50.430;6.806;2023-08-08T12:22:34;2.08;;;0.70;;
46613;SDS011;32338;50.430;6.806;2023-08-08T12:25:02;4.10;;;0.80;;
46613;SDS011;32338;50.430;6.806;2023-08-08T12:27:29;3.53;;;0.77;;
46613;SDS011;32338;50.430;6.806;2023-08-08T12:29:56;2.42;;;0.70;;
46613;SDS011;32338;50.430;6.806;2023-08-08T12:32:25;2.15;;;0.68;;
46613;SDS011;32338;50.430;6.806;2023-08-08T12:34:53;1.48;;;0.60;;
46613;SDS011;32338;50.430;6.806;2023-08-08T12:37:21;3.25;;;0.88;;
46613;SDS011;32338;50.430;6.806;2023-08-08T12:39:48;1.65;;;0.77;;
46613;SDS011;32338;50.430;6.806;2023-08-08T12:42:15;1.42;;;0.63;;
46613;SDS011;32338;50.430;6.806;2023-08-08T12:44:41;5.13;;;0.60;;
46613;SDS011;32338;50.430;6.806;2023-08-08T12:47:08;2.83;;;0.68;;
46613;SDS011;32338;50.430;6.806;2023-08-08T12:49:36;2.40;;;0.50;;
46613;SDS011;32338;50.430;6.806;2023-08-08T12:52:03;2.17;;;0.47;;
46613;SDS011;32338;50.430;6.806;2023-08-08T12:54:30;4.00;;;1.05;;
46613;SDS011;32338;50.430;6.806;2023-08-08T12:56:56;4.43;;;0.60;;
46613;SDS011;32338;50.430;6.806;2023-08-08T12:59:23;2.45;;;0.55;;
46613;SDS011;32338;50.430;6.806;2023-08-08T13:01:49;1.48;;;0.77;;
